Pendleton, OR (97801)

9:30 PM PDT on August 24, 2016 (GMT -0700)
Sun Ridge Estates | | Change Station

Elev 1210 ft 45.65 °N, 118.79 °W | Updated 12 minutes ago

Clear
Clear
73.2 °F
Feels Like 77 °F
N
1.0
Wind Variable Wind from WNW
Gusts 4.0 mph

Today
High -- | Low -- °F
--% Chance of Precip.
Yesterday
High -- | Low -- °F
Precip. -- in
Pressure 30.07 in
Visibility 10.0 miles
Clouds Clear
Heat Index 77 °F
Dew Point 43 °F
Humidity 34%
Rainfall 0.00 in
Snow Depth Not available.
6:07 AM 7:46 PM
Waning Gibbous, 50% visible
METAR KPDT 250353Z AUTO 31006KT 10SM CLR 19/04 A3011 RMK AO2 SLP183 T01890039
Pressure 30.07 in
Visibility 10.0 miles
Clouds Clear
Heat Index 77 °F
Dew Point 43 °F
Humidity 34%
Rainfall 0.00 in
Snow Depth Not available.
6:07 AM 7:46 PM
Waning Gibbous, 50% visible
METAR KPDT 250353Z AUTO 31006KT 10SM CLR 19/04 A3011 RMK AO2 SLP183 T01890039

10-Day Weather Forecast

Almanac

Astronomy

Aug. 24, 2016 Rise Set
Actual Time
Civil Twilight
Nautical Twilight
Astronomical Twilight
Moon
Length of Visible Light
Length of Day
Tomorrow will be .
, % of the Moon is Illuminated

Today's Extremes

State Highs State Lows

Community

WunderPhotos

Upload Photos

1,934,796 photos uploaded!

WunderBlog® & News

Nearby

Air Quality

  Air Quality AQ Index Pollutant
Not available.

Snow Depth

Station Depth Elevation

Earthquake Activity

City Distance Mag. Time & Date
Minimum magnitude displayed is 2.5.

Coastal Water Temperatures

Place Temperature

Stations

Nearby Weather Stations

Station Location Temp. Windchill Dew Point Humidity Wind Precip. Elev Updated Type
                   

Watches & Warnings

There are currently no watches in effect.